Terminal Aerodrome Forecast
Issued by NWS Wilmington, NC

Home | Current Version | Previous Version | Text Only | Print | Product List | Glossary On
Versions: 1 2 3 4 5 6 7 8 9 10 11 12 13 14
956
FTUS42 KILM 142320
TAFLBT
TAF
KLBT 142320Z 1500/1524 11005KT P6SM SCT080
     FM150900 04006KT P6SM -FZRA BKN014
     FM151400 07009KT 6SM -RA BKN006
     FM151800 06005KT 2SM BR OVC004
      TEMPO 1518/1521 2SM -RA OVC004
     FM152100 13005KT 2SM BR OVC007
      TEMPO 1521/1524 1SM -DZ OVC007=

USA.gov is the U.S. government's official web portal to all federal, state and local government web resources and services.